createdAt,value
2023-02-22T00:00:08.461Z,652.00
2023-02-22T00:01:08.503Z,649.00
2023-02-22T00:02:08.577Z,646.00
2023-02-22T00:03:08.593Z,648.00
2023-02-22T00:04:08.661Z,647.00
2023-02-22T00:05:08.664Z,649.00
2023-02-22T00:06:08.690Z,643.00
2023-02-22T00:07:08.781Z,646.00
2023-02-22T00:08:08.837Z,647.00
2023-02-22T00:09:08.873Z,650.00
2023-02-22T00:10:08.874Z,647.00
2023-02-22T00:11:09.066Z,648.00
2023-02-22T00:12:08.995Z,644.00
2023-02-22T00:13:09.035Z,648.00
2023-02-22T00:14:09.075Z,646.00
2023-02-22T00:15:09.122Z,646.00
2023-02-22T00:16:09.170Z,652.00
2023-02-22T00:17:09.234Z,646.00
2023-02-22T00:18:09.269Z,647.00
2023-02-22T00:19:09.301Z,642.00
2023-02-22T00:20:09.384Z,641.00
2023-02-22T00:21:09.377Z,646.00
2023-02-22T00:23:09.685Z,637.00
2023-02-22T00:24:09.535Z,641.00
2023-02-22T00:25:09.566Z,637.00
2023-02-22T00:26:09.599Z,647.00
2023-02-22T00:27:09.624Z,645.00
2023-02-22T00:28:09.692Z,640.00
2023-02-22T00:29:09.727Z,639.00
2023-02-22T00:30:09.760Z,636.00
2023-02-22T00:31:09.783Z,633.00
2023-02-22T00:32:09.908Z,637.00
2023-02-22T00:33:09.887Z,637.00
2023-02-22T00:34:09.923Z,632.00
2023-02-22T00:35:09.950Z,639.00
2023-02-22T00:36:10.027Z,638.00
2023-02-22T00:37:10.106Z,634.00
2023-02-22T00:38:10.105Z,638.00
2023-02-22T00:39:10.166Z,636.00
2023-02-22T00:40:10.197Z,639.00
2023-02-22T00:41:10.289Z,636.00
2023-02-22T00:42:10.307Z,635.00
2023-02-22T00:43:10.382Z,638.00
2023-02-22T00:44:10.420Z,636.00
2023-02-22T00:45:10.467Z,640.00
2023-02-22T00:46:10.585Z,633.00
2023-02-22T00:47:10.525Z,634.00
2023-02-22T00:48:10.602Z,632.00
2023-02-22T00:49:10.702Z,629.00
2023-02-22T00:50:10.675Z,637.00
2023-02-22T00:51:10.728Z,634.00
2023-02-22T00:52:10.755Z,635.00
2023-02-22T00:53:10.840Z,634.00
2023-02-22T00:54:10.895Z,632.00
2023-02-22T00:55:10.930Z,629.00
2023-02-22T00:56:10.952Z,633.00
2023-02-22T00:57:10.982Z,632.00
2023-02-22T00:58:11.024Z,633.00
2023-02-22T00:59:11.103Z,629.00
2023-02-22T01:00:11.124Z,631.00
2023-02-22T01:01:11.144Z,628.00
2023-02-22T01:02:11.208Z,631.00
2023-02-22T01:03:11.244Z,632.00
2023-02-22T01:04:11.239Z,627.00
2023-02-22T01:05:11.266Z,631.00
2023-02-22T01:06:11.340Z,630.00
2023-02-22T01:07:11.352Z,627.00
2023-02-22T01:08:11.393Z,625.00
2023-02-22T01:09:11.454Z,625.00
2023-02-22T01:10:11.498Z,624.00
2023-02-22T01:11:11.524Z,626.00
2023-02-22T01:12:11.568Z,625.00
2023-02-22T01:13:11.597Z,626.00
2023-02-22T01:14:11.657Z,620.00
2023-02-22T01:15:11.665Z,623.00
2023-02-22T01:16:11.745Z,627.00
2023-02-22T01:17:11.740Z,623.00
2023-02-22T01:18:11.825Z,626.00
2023-02-22T01:19:11.824Z,626.00
2023-02-22T01:20:11.868Z,629.00
2023-02-22T01:21:11.917Z,626.00
2023-02-22T01:22:11.952Z,623.00
2023-02-22T01:23:11.993Z,624.00
2023-02-22T01:24:12.039Z,623.00
2023-02-22T01:25:12.104Z,622.00
2023-02-22T01:26:12.152Z,623.00
2023-02-22T01:27:12.143Z,624.00
2023-02-22T01:28:12.188Z,617.00
2023-02-22T01:29:12.269Z,617.00
2023-02-22T01:30:12.313Z,621.00
2023-02-22T01:31:12.343Z,619.00
2023-02-22T01:32:12.520Z,624.00
2023-02-22T01:33:12.392Z,619.00
2023-02-22T01:34:12.456Z,622.00
2023-02-22T01:35:12.493Z,619.00
2023-02-22T01:36:12.522Z,621.00
2023-02-22T01:37:12.566Z,619.00
2023-02-22T01:38:12.603Z,623.00
2023-02-22T01:39:12.623Z,623.00
2023-02-22T01:40:12.643Z,625.00
2023-02-22T01:41:12.691Z,623.00
2023-02-22T01:42:12.732Z,620.00
2023-02-22T01:43:12.797Z,621.00
2023-02-22T01:44:12.844Z,627.00
2023-02-22T01:45:12.860Z,624.00
2023-02-22T01:46:12.925Z,621.00
2023-02-22T01:47:12.950Z,624.00
2023-02-22T01:48:12.982Z,619.00
2023-02-22T01:49:13.008Z,621.00
2023-02-22T01:50:13.056Z,617.00
2023-02-22T01:51:13.064Z,617.00
2023-02-22T01:52:13.119Z,624.00
2023-02-22T01:53:13.142Z,621.00
2023-02-22T01:54:13.215Z,620.00
2023-02-22T01:55:13.255Z,618.00
2023-02-22T01:56:13.287Z,619.00
2023-02-22T01:57:13.338Z,622.00
2023-02-22T01:58:13.375Z,618.00
2023-02-22T01:59:13.422Z,612.00
2023-02-22T02:00:13.476Z,617.00
2023-02-22T02:36:15.052Z,613.00
2023-02-22T02:37:15.070Z,609.00
2023-02-22T02:38:15.120Z,609.00
2023-02-22T02:39:15.155Z,612.00
2023-02-22T02:40:15.254Z,603.00
2023-02-22T02:41:15.596Z,609.00
2023-02-22T02:42:15.278Z,608.00
2023-02-22T02:43:15.348Z,609.00
2023-02-22T02:44:15.431Z,609.00
2023-02-22T02:45:15.479Z,611.00
2023-02-22T02:46:15.525Z,608.00
2023-02-22T02:47:15.619Z,610.00
2023-02-22T02:48:15.619Z,606.00
2023-02-22T02:49:15.703Z,609.00
2023-02-22T02:50:15.730Z,604.00
2023-02-22T02:51:16.076Z,605.00
2023-02-22T02:52:15.807Z,609.00
2023-02-22T02:53:15.834Z,608.00
2023-02-22T02:54:16.150Z,607.00
2023-02-22T02:55:15.972Z,606.00
2023-02-22T02:56:15.979Z,606.00
2023-02-22T02:57:16.066Z,605.00
2023-02-22T02:58:16.017Z,605.00
2023-02-22T02:59:16.131Z,605.00
2023-02-22T03:00:16.132Z,601.00
2023-02-22T03:01:16.527Z,609.00
2023-02-22T03:02:16.230Z,603.00
2023-02-22T03:03:16.291Z,608.00
2023-02-22T03:04:16.319Z,606.00
2023-02-22T03:05:16.378Z,607.00
2023-02-22T03:06:16.404Z,608.00
2023-02-22T03:07:16.475Z,602.00
2023-02-22T03:08:16.493Z,608.00
2023-02-22T03:09:16.571Z,606.00
2023-02-22T03:10:16.615Z,604.00
2023-02-22T03:11:17.003Z,609.00
2023-02-22T03:12:16.666Z,611.00
2023-02-22T03:13:16.702Z,604.00
2023-02-22T03:14:16.750Z,605.00
2023-02-22T03:15:16.811Z,601.00
2023-02-22T03:16:16.823Z,611.00
2023-02-22T03:17:16.864Z,605.00
2023-02-22T03:18:16.939Z,605.00
2023-02-22T03:19:16.912Z,607.00
2023-02-22T03:20:16.968Z,608.00
2023-02-22T03:21:17.184Z,607.00
2023-02-22T03:22:16.974Z,599.00
2023-02-22T03:23:17.015Z,606.00
2023-02-22T03:24:17.046Z,608.00
2023-02-22T03:25:17.084Z,602.00
2023-02-22T03:26:17.096Z,599.00
2023-02-22T03:27:17.109Z,608.00
2023-02-22T03:28:17.135Z,603.00
2023-02-22T03:29:17.131Z,605.00
2023-02-22T03:30:17.180Z,602.00
2023-02-22T03:31:17.671Z,601.00
2023-02-22T03:32:17.220Z,603.00
2023-02-22T03:33:17.205Z,600.00
2023-02-22T03:34:17.226Z,603.00
2023-02-22T03:35:17.248Z,596.00
2023-02-22T03:36:17.254Z,606.00
2023-02-22T03:37:17.270Z,601.00
2023-02-22T03:38:17.307Z,599.00
2023-02-22T03:39:17.329Z,601.00
2023-02-22T03:40:17.363Z,600.00
2023-02-22T03:41:17.790Z,598.00
2023-02-22T03:42:17.379Z,596.00
2023-02-22T03:43:17.365Z,596.00
2023-02-22T03:44:17.476Z,598.00
2023-02-22T03:45:17.418Z,602.00
2023-02-22T03:46:17.490Z,601.00
2023-02-22T03:47:17.497Z,597.00
2023-02-22T03:48:17.515Z,600.00
2023-02-22T03:49:17.511Z,599.00
2023-02-22T03:50:17.568Z,594.00
2023-02-22T03:51:17.609Z,597.00
2023-02-22T03:52:17.572Z,597.00
2023-02-22T03:53:17.598Z,603.00
2023-02-22T03:54:17.604Z,598.00
2023-02-22T03:55:17.637Z,600.00
2023-02-22T03:56:17.640Z,599.00
2023-02-22T03:57:17.649Z,602.00
2023-02-22T03:58:17.675Z,592.00
2023-02-22T03:59:17.691Z,598.00
2023-02-22T04:00:17.676Z,592.00
2023-02-22T04:01:18.047Z,599.00
2023-02-22T04:02:17.746Z,602.00
2023-02-22T04:03:17.804Z,602.00
2023-02-22T04:04:17.796Z,595.00
2023-02-22T04:05:17.776Z,603.00
2023-02-22T04:06:17.830Z,598.00
2023-02-22T04:07:17.850Z,594.00
2023-02-22T04:08:17.869Z,599.00
2023-02-22T04:09:17.861Z,594.00
2023-02-22T04:10:17.899Z,604.00
2023-02-22T04:11:18.168Z,599.00
2023-02-22T04:12:17.904Z,601.00
2023-02-22T04:13:17.940Z,592.00
2023-02-22T04:14:17.968Z,595.00
2023-02-22T04:15:18.007Z,602.00
2023-02-22T04:16:18.071Z,597.00
2023-02-22T04:17:18.022Z,595.00
2023-02-22T04:18:18.056Z,589.00
2023-02-22T04:19:18.072Z,591.00
2023-02-22T04:20:18.094Z,597.00
2023-02-22T04:21:18.447Z,592.00
2023-02-22T04:22:18.141Z,592.00
2023-02-22T04:23:18.194Z,596.00
2023-02-22T04:24:18.173Z,600.00
2023-02-22T04:25:18.196Z,596.00
2023-02-22T04:26:18.230Z,592.00
2023-02-22T04:27:18.240Z,597.00
2023-02-22T04:28:18.306Z,593.00
2023-02-22T04:29:18.325Z,594.00
2023-02-22T04:30:18.380Z,596.00
2023-02-22T04:31:18.740Z,587.00
2023-02-22T04:32:18.415Z,594.00
2023-02-22T04:33:18.371Z,589.00
2023-02-22T04:34:18.412Z,598.00
2023-02-22T04:35:18.426Z,594.00
2023-02-22T04:36:18.447Z,595.00
2023-02-22T04:37:18.487Z,596.00
2023-02-22T04:38:18.539Z,599.00
2023-02-22T04:39:18.597Z,595.00
2023-02-22T04:40:18.560Z,599.00
2023-02-22T04:41:18.966Z,593.00
2023-02-22T04:42:18.627Z,595.00
2023-02-22T04:43:18.660Z,592.00
2023-02-22T04:44:18.671Z,597.00
2023-02-22T04:45:18.733Z,590.00
2023-02-22T04:46:18.771Z,589.00
2023-02-22T04:47:18.769Z,593.00
2023-02-22T04:48:18.797Z,591.00
2023-02-22T04:49:18.842Z,594.00
2023-02-22T04:50:18.863Z,592.00
2023-02-22T04:51:19.123Z,591.00
2023-02-22T04:52:18.890Z,590.00
2023-02-22T04:53:18.898Z,592.00
2023-02-22T04:54:18.947Z,596.00
2023-02-22T04:55:18.977Z,591.00
2023-02-22T04:56:19.008Z,596.00
2023-02-22T04:57:19.038Z,593.00
2023-02-22T04:58:19.043Z,593.00
2023-02-22T04:59:19.072Z,588.00
2023-02-22T05:00:19.082Z,598.00
2023-02-22T05:01:19.431Z,594.00
2023-02-22T05:02:19.194Z,595.00
2023-02-22T05:03:19.201Z,591.00
2023-02-22T05:04:19.225Z,594.00
2023-02-22T05:05:19.237Z,596.00
2023-02-22T05:06:19.309Z,595.00
2023-02-22T05:07:19.301Z,596.00
2023-02-22T05:08:19.315Z,594.00
2023-02-22T05:09:19.334Z,598.00
2023-02-22T05:12:19.447Z,595.00
2023-02-22T05:13:19.472Z,594.00
2023-02-22T05:14:19.462Z,590.00
2023-02-22T05:43:20.254Z,588.00
2023-02-22T05:45:20.300Z,597.00
2023-02-22T05:46:20.343Z,585.00
2023-02-22T06:01:27.721Z,590.00
2023-02-22T08:26:21.481Z,1092.00
2023-02-22T08:27:21.527Z,1098.00
2023-02-22T08:28:21.519Z,1099.00
2023-02-22T08:29:21.473Z,1101.00
2023-02-22T08:30:21.539Z,1106.00
2023-02-22T08:31:21.530Z,993.00
2023-02-22T08:32:21.609Z,923.00
2023-02-22T08:33:21.601Z,888.00
2023-02-22T08:34:21.593Z,606.00
2023-02-22T08:35:21.594Z,500.00
2023-02-22T08:36:21.611Z,498.00
2023-02-22T08:37:21.607Z,492.00
2023-02-22T08:38:21.675Z,510.00
2023-02-22T08:39:21.660Z,493.00
2023-02-22T08:40:21.706Z,503.00
2023-02-22T08:41:22.106Z,500.00
2023-02-22T08:42:21.760Z,494.00
2023-02-22T08:43:21.842Z,521.00
2023-02-22T08:44:21.876Z,541.00
2023-02-22T08:47:22.045Z,596.00
2023-02-22T08:48:22.067Z,616.00
2023-02-22T08:51:22.164Z,873.00
2023-02-22T08:52:22.166Z,939.00
2023-02-22T08:53:22.204Z,968.00
2023-02-22T08:57:22.333Z,1029.00
2023-02-22T08:58:22.402Z,1004.00
2023-02-22T08:59:22.393Z,854.00
2023-02-22T09:02:22.681Z,765.00
2023-02-22T10:10:24.124Z,541.00
2023-02-22T10:27:25.129Z,545.00
2023-02-22T10:29:25.063Z,599.00
2023-02-22T10:30:25.853Z,661.00
2023-02-22T10:31:25.268Z,524.00
2023-02-22T10:32:25.344Z,402.00
2023-02-22T10:33:25.295Z,469.00
2023-02-22T10:34:25.346Z,504.00
2023-02-22T10:35:25.401Z,605.00
2023-02-22T10:36:25.414Z,638.00
2023-02-22T10:37:25.714Z,602.00
2023-02-22T10:38:25.552Z,479.00
2023-02-22T10:39:25.583Z,467.00
2023-02-22T10:40:25.624Z,598.00
2023-02-22T10:41:25.645Z,545.00
2023-02-22T10:42:26.159Z,561.00
2023-02-22T10:43:25.798Z,652.00
2023-02-22T10:44:25.774Z,806.00
2023-02-22T10:45:25.808Z,966.00
2023-02-22T10:46:25.853Z,1459.00
2023-02-22T10:47:25.887Z,2034.00
2023-02-22T10:48:26.473Z,2435.00
2023-02-22T10:49:26.033Z,2623.00
2023-02-22T10:50:26.076Z,2692.00
2023-02-22T10:51:26.107Z,2812.00
2023-02-22T10:52:26.163Z,2902.00
2023-02-22T10:53:26.168Z,2958.00
2023-02-22T10:54:26.207Z,3024.00
2023-02-22T10:55:26.219Z,3094.00
2023-02-22T10:56:26.271Z,3135.00
2023-02-22T10:57:26.269Z,2798.00
2023-02-22T10:58:26.496Z,2632.00
2023-02-22T10:59:26.388Z,3097.00
2023-02-22T11:00:26.601Z,3306.00
2023-02-22T11:01:26.537Z,3192.00
2023-02-22T11:02:26.710Z,3290.00
2023-02-22T11:03:26.578Z,3363.00
2023-02-22T11:04:26.557Z,3382.00
2023-02-22T11:05:26.582Z,3412.00
2023-02-22T11:06:26.606Z,3459.00
2023-02-22T11:07:26.645Z,3428.00
2023-02-22T11:08:26.664Z,3383.00
2023-02-22T11:09:26.704Z,3451.00
2023-02-22T11:10:26.695Z,3494.00
2023-02-22T11:11:26.720Z,3566.00
2023-02-22T11:12:26.699Z,3498.00
2023-02-22T11:13:26.736Z,3450.00
2023-02-22T11:14:26.735Z,3585.00
2023-02-22T11:15:26.723Z,3599.00
2023-02-22T11:16:26.769Z,3638.00
2023-02-22T11:17:26.744Z,3649.00
2023-02-22T11:18:26.782Z,3673.00
2023-02-22T11:19:26.773Z,3681.00
2023-02-22T11:20:26.774Z,3552.00
2023-02-22T11:21:26.803Z,3632.00
2023-02-22T11:22:26.805Z,3787.00
2023-02-22T11:23:27.102Z,3805.00
2023-02-22T11:24:30.327Z,3737.00
2023-02-22T11:25:27.909Z,3738.00
2023-02-22T11:34:26.647Z,3768.00
2023-02-22T15:43:30.771Z,3269.00
2023-02-22T15:51:30.766Z,3088.00
2023-02-22T16:07:31.262Z,3130.00
2023-02-22T16:18:30.506Z,3149.00
2023-02-22T16:19:30.519Z,3144.00
2023-02-22T16:20:30.504Z,3147.00
2023-02-22T16:21:30.529Z,3115.00
2023-02-22T16:22:30.557Z,3133.00
2023-02-22T16:23:30.569Z,3130.00
2023-02-22T16:24:30.569Z,3108.00
2023-02-22T16:25:30.582Z,3087.00
2023-02-22T16:26:30.572Z,3116.00
2023-02-22T16:27:30.580Z,3067.00
2023-02-22T16:28:30.687Z,3071.00
2023-02-22T16:29:30.784Z,3110.00
2023-02-22T16:30:30.732Z,3092.00
2023-02-22T16:31:30.754Z,3096.00
2023-02-22T16:32:30.747Z,3075.00
2023-02-22T16:33:30.656Z,3102.00
2023-02-22T16:34:30.667Z,3081.00
2023-02-22T16:35:30.683Z,3074.00
2023-02-22T16:36:30.722Z,3067.00
2023-02-22T16:37:30.734Z,3037.00
2023-02-22T16:38:30.761Z,3050.00
2023-02-22T16:39:30.765Z,3031.00
2023-02-22T16:40:30.780Z,3014.00
2023-02-22T16:41:30.779Z,3023.00
2023-02-22T16:42:30.882Z,2989.00
2023-02-22T16:43:30.802Z,3007.00
2023-02-22T16:44:30.861Z,3020.00
2023-02-22T16:45:31.029Z,2988.00
2023-02-22T16:46:30.944Z,3001.00
2023-02-22T16:47:30.977Z,2983.00
2023-02-22T16:48:30.924Z,2990.00
2023-02-22T16:49:30.967Z,2954.00
2023-02-22T16:50:30.951Z,2964.00
2023-02-22T16:51:30.958Z,2941.00
2023-02-22T16:52:30.976Z,2912.00
2023-02-22T16:53:30.958Z,2895.00
2023-02-22T16:54:31.354Z,2860.00
2023-02-22T16:55:31.350Z,2904.00
2023-02-22T16:56:31.385Z,2843.00
2023-02-22T16:57:30.996Z,2850.00
2023-02-22T16:58:31.008Z,2869.00
2023-02-22T16:59:31.005Z,2885.00
2023-02-22T17:00:31.096Z,2901.00
2023-02-22T17:01:31.057Z,2870.00
2023-02-22T17:02:31.037Z,2876.00
2023-02-22T17:03:31.077Z,2852.00
2023-02-22T17:04:31.057Z,2868.00
2023-02-22T17:05:31.141Z,2830.00
2023-02-22T17:06:31.129Z,2852.00
2023-02-22T17:07:31.122Z,2856.00
2023-02-22T17:08:31.164Z,2824.00
2023-02-22T17:09:31.154Z,2835.00
2023-02-22T17:10:31.177Z,2869.00
2023-02-22T17:11:31.199Z,2883.00
2023-02-22T17:12:31.203Z,2857.00
2023-02-22T17:13:31.202Z,2828.00
2023-02-22T17:14:31.229Z,2846.00
2023-02-22T17:15:31.266Z,2869.00
2023-02-22T17:16:31.248Z,2864.00
2023-02-22T17:17:31.434Z,2858.00
2023-02-22T17:18:31.261Z,2865.00
2023-02-22T17:19:31.283Z,2857.00
2023-02-22T17:20:31.318Z,2859.00
2023-02-22T17:21:31.329Z,2876.00
2023-02-22T17:22:31.406Z,2865.00
2023-02-22T17:23:31.384Z,2877.00
2023-02-22T17:24:31.452Z,2886.00
2023-02-22T17:25:31.445Z,2888.00
2023-02-22T17:26:31.458Z,2890.00
2023-02-22T17:27:31.458Z,2889.00
2023-02-22T17:28:31.513Z,2897.00
2023-02-22T17:29:31.541Z,2891.00
2023-02-22T17:30:31.594Z,2894.00
2023-02-22T17:31:31.641Z,2891.00
2023-02-22T17:32:31.607Z,2898.00
2023-02-22T17:33:31.579Z,2909.00
2023-02-22T17:34:31.662Z,2880.00
2023-02-22T17:35:31.655Z,2892.00
2023-02-22T17:36:31.698Z,2887.00
2023-02-22T17:37:31.700Z,2893.00
2023-02-22T17:38:31.752Z,2895.00
2023-02-22T17:39:31.760Z,2885.00
2023-02-22T17:40:31.822Z,2892.00
2023-02-22T17:41:31.805Z,2874.00
2023-02-22T17:42:31.832Z,2879.00
2023-02-22T17:43:31.859Z,2893.00
2023-02-22T17:44:31.905Z,2883.00
2023-02-22T17:45:31.925Z,2872.00
2023-02-22T17:46:32.047Z,2880.00
2023-02-22T17:47:32.013Z,2872.00
2023-02-22T17:48:32.024Z,2862.00
2023-02-22T17:49:32.064Z,2847.00
2023-02-22T17:50:32.072Z,2848.00
2023-02-22T17:51:32.081Z,2869.00
2023-02-22T17:52:32.118Z,2858.00
2023-02-22T17:53:32.125Z,2850.00
2023-02-22T17:54:32.170Z,2837.00
2023-02-22T17:55:32.168Z,2854.00
2023-02-22T17:56:32.226Z,2860.00
2023-02-22T17:57:32.233Z,2852.00
2023-02-22T17:58:32.291Z,2836.00
2023-02-22T17:59:32.313Z,2845.00
2023-02-22T18:00:32.333Z,2837.00
2023-02-22T21:37:40.543Z,2291.00
2023-02-22T21:38:40.579Z,2286.00
2023-02-22T21:39:40.636Z,2270.00
2023-02-22T21:40:40.678Z,2278.00
2023-02-22T21:41:41.076Z,2276.00
2023-02-22T21:42:40.775Z,2283.00
2023-02-22T21:43:40.825Z,2262.00
2023-02-22T21:44:40.870Z,2252.00
2023-02-22T21:45:40.912Z,2274.00
2023-02-22T21:46:40.961Z,2261.00
2023-02-22T21:47:40.996Z,2266.00
2023-02-22T21:48:41.038Z,2262.00
2023-02-22T21:49:41.072Z,2268.00
2023-02-22T21:50:41.103Z,2261.00
2023-02-22T21:51:41.167Z,2247.00
2023-02-22T21:52:41.178Z,2264.00
2023-02-22T21:53:41.230Z,2259.00
2023-02-22T21:54:41.431Z,2263.00
2023-02-22T21:55:41.327Z,2257.00
2023-02-22T21:56:41.351Z,2247.00
2023-02-22T21:57:41.388Z,2260.00
2023-02-22T21:58:41.429Z,2246.00
2023-02-22T21:59:41.522Z,2236.00
2023-02-22T22:00:41.512Z,2245.00
2023-02-22T22:01:41.671Z,2250.00
2023-02-22T22:02:41.646Z,2249.00
2023-02-22T22:03:41.613Z,2229.00
2023-02-22T22:04:41.710Z,2234.00
2023-02-22T22:05:41.716Z,2234.00
2023-02-22T22:06:41.765Z,2233.00
2023-02-22T22:07:41.772Z,2240.00
2023-02-22T22:08:41.849Z,2222.00
2023-02-22T22:09:41.851Z,2225.00
2023-02-22T22:10:41.925Z,2240.00
2023-02-22T22:11:41.965Z,2214.00
2023-02-22T22:12:42.015Z,2226.00
2023-02-22T22:13:42.058Z,2234.00
2023-02-22T22:14:42.085Z,2227.00
2023-02-22T22:15:42.183Z,2219.00
2023-02-22T22:16:42.181Z,2228.00
2023-02-22T22:17:42.207Z,2233.00
2023-02-22T22:18:42.245Z,2225.00
2023-02-22T22:19:42.310Z,2222.00
2023-02-22T22:20:42.306Z,2231.00
2023-02-22T22:21:42.368Z,2233.00
2023-02-22T22:22:42.420Z,2213.00
2023-02-22T22:23:42.437Z,2224.00
2023-02-22T22:24:42.941Z,2218.00
2023-02-22T22:25:42.526Z,2226.00
2023-02-22T22:26:42.602Z,2229.00
2023-02-22T22:27:42.629Z,2234.00
2023-02-22T22:28:42.698Z,2199.00
2023-02-22T22:29:42.704Z,2226.00
2023-02-22T22:30:42.834Z,2238.00
2023-02-22T22:31:42.853Z,2220.00
2023-02-22T22:32:42.837Z,2220.00
2023-02-22T22:33:42.858Z,2217.00
2023-02-22T22:34:42.928Z,2205.00
2023-02-22T22:35:42.970Z,2218.00
2023-02-22T22:36:43.020Z,2207.00
2023-02-22T22:37:43.037Z,2203.00
2023-02-22T22:38:43.116Z,2216.00
2023-02-22T22:39:43.179Z,2211.00
2023-02-22T22:40:43.184Z,2216.00
2023-02-22T22:41:43.230Z,2201.00
2023-02-22T22:42:43.249Z,2208.00
2023-02-22T22:43:43.296Z,2216.00
2023-02-22T22:44:43.348Z,2208.00
2023-02-22T22:45:43.389Z,2201.00
2023-02-22T22:46:43.615Z,2188.00
2023-02-22T22:47:43.468Z,2197.00
2023-02-22T22:48:43.507Z,2197.00
2023-02-22T22:49:43.546Z,2194.00
2023-02-22T22:50:43.629Z,2200.00
2023-02-22T22:51:43.610Z,2195.00
2023-02-22T22:52:43.658Z,2198.00
2023-02-22T22:53:43.682Z,2183.00
2023-02-22T22:54:43.734Z,2182.00
2023-02-22T22:55:43.755Z,2164.00
2023-02-22T22:56:43.788Z,2177.00
2023-02-22T22:57:43.843Z,2180.00
2023-02-22T22:58:43.903Z,2185.00
2023-02-22T22:59:43.957Z,2174.00
2023-02-22T23:00:43.956Z,2182.00
2023-02-22T23:01:44.039Z,2188.00
2023-02-22T23:02:44.062Z,2166.00
2023-02-22T23:03:44.163Z,2161.00
2023-02-22T23:04:44.127Z,2172.00
2023-02-22T23:05:44.201Z,2173.00
2023-02-22T23:06:44.301Z,2174.00
2023-02-22T23:07:44.254Z,2167.00
2023-02-22T23:08:44.302Z,2169.00
2023-02-22T23:09:44.401Z,2160.00
2023-02-22T23:10:44.378Z,2175.00
2023-02-22T23:11:44.839Z,2171.00
2023-02-22T23:12:44.501Z,2165.00
2023-02-22T23:13:44.528Z,2168.00
2023-02-22T23:14:44.534Z,2158.00
2023-02-22T23:15:44.619Z,2165.00
2023-02-22T23:16:44.637Z,2166.00
2023-02-22T23:17:44.698Z,2164.00
2023-02-22T23:18:44.744Z,2150.00
2023-02-22T23:19:44.790Z,2147.00
2023-02-22T23:20:44.842Z,2148.00
2023-02-22T23:21:44.886Z,2154.00
2023-02-22T23:22:45.000Z,2143.00
2023-02-22T23:23:44.986Z,2146.00
2023-02-22T23:24:45.007Z,2142.00
2023-02-22T23:25:45.074Z,2142.00
2023-02-22T23:26:45.072Z,2147.00
2023-02-22T23:27:45.094Z,2138.00
2023-02-22T23:28:45.095Z,2141.00
2023-02-22T23:29:45.152Z,2132.00
2023-02-22T23:30:45.250Z,2132.00
2023-02-22T23:31:45.332Z,2133.00
2023-02-22T23:32:45.316Z,2137.00
2023-02-22T23:33:45.328Z,2130.00
2023-02-22T23:34:45.431Z,2135.00
2023-02-22T23:35:45.409Z,2116.00
2023-02-22T23:36:45.470Z,2141.00
2023-02-22T23:37:45.530Z,2122.00
2023-02-22T23:38:45.561Z,2123.00
2023-02-22T23:39:45.588Z,2113.00
2023-02-22T23:40:45.680Z,2122.00
2023-02-22T23:41:45.761Z,2109.00
2023-02-22T23:42:45.732Z,2107.00
2023-02-22T23:43:45.804Z,2101.00
2023-02-22T23:44:45.859Z,2109.00
2023-02-22T23:45:45.924Z,2109.00
2023-02-22T23:46:45.907Z,2103.00
2023-02-22T23:47:45.926Z,2106.00
2023-02-22T23:48:45.968Z,2101.00
2023-02-22T23:49:45.994Z,2100.00
2023-02-22T23:50:46.102Z,2101.00
2023-02-22T23:51:46.056Z,2083.00
2023-02-22T23:52:46.039Z,2090.00
2023-02-22T23:53:46.068Z,2094.00
2023-02-22T23:54:46.100Z,2075.00
2023-02-22T23:55:46.117Z,2083.00
2023-02-22T23:56:46.135Z,2079.00
2023-02-22T23:57:46.171Z,2078.00
2023-02-22T23:58:46.216Z,2094.00
2023-02-22T23:59:46.245Z,2064.00
